WMSA METAR and TAF | Updated Today

WMSA METAR

Sultan Abdul Aziz Shah International Airport

Observation time: 35 min. ago

WMSA 032100Z 00000KT 5000 BR FEW003 24/23 Q1011

Need help? Read our tutorial on how to read METARs or read the parsed version below.

Sultan Abdul Aziz Shah International Airport (WMSA) METAR

  • Weather conditions on Fri, 03 Dec 2021 21:00:00 +0000 (35 min. ago):
  • Present conditions: Mist
  • Clouds: A few at 91 meters
  • Visibility: 5000 meters
  • Wind: Calm
  • Temperature: 24 celsius
  • Dew point: 23 celsius
  • Pressure: 1011 millibars
  • Remarks: None


Useful to know...

WMSA TAF

Sultan Abdul Aziz Shah International Airport

TAF WMSA 031700Z 0318/0418 VRB02KT 9999 FEW026
Observation time: 4:35 hr. ago
Need help? Read our tutorial on how to read TAFs or read the parsed version below.

Parsed version of TAF for Sultan Abdul Aziz Shah International Airport (WMSA)

  • From 03 December at 18:00 UTC, to day 04 of the month at 18:00 UTC
  • Clouds: A few at 792 meters
  • Visibility: Greater than 10 km
  • Wind: Variable at 2